DAOI

Ech Cheliff Airport

Algeria
TAF DAOI 141700Z 1418/1518 29011KT 9000 SCT020 FEW026CB BKN030 PROB30 TEMPO 1418/1424 5000 -TSRA BECMG 1500/1503 VRB02KT SCT026 BECMG 1509/1512 23012KT
Issued Valid From Valid To
Dec-14 @ 17:00 UTC
(6 hours ago)
Dec-14 @ 18:00 UTC
(5 hours ago)
Dec-15 @ 18:00 UTC
(in 19 hours)
Dec-14 @ 18:00 to Dec-15 @ 00:00
TAF DAOI 141700Z 1418/1518 29011KT 9000 SCT020 FEW026CB BKN030
Wind Visibility Clouds
290° at 11 knots 8,996 meters
  • Scattered at 2,000' AGL
  • Few at 2,600' AGL
  • Broken at 3,000' AGL
Temporary  (Probability 30%) Dec-14 @ 18:00 to Dec-15 @ 00:00
PROB30 TEMPO 1418/1424 5000 -TSRA
Visibility Conditions
5,005 meters
  • Light Thunderstorm
  • Light Rain
Becoming Dec-15 @ 00:00 to Dec-15 @ 09:00
BECMG 1500/1503 VRB02KT SCT026
Wind Visibility Clouds
Variable at 2 knots 8,996 meters
  • Scattered at 2,600' AGL
Becoming Dec-15 @ 09:00 to Dec-15 @ 18:00
BECMG 1509/1512 23012KT
Wind Visibility Clouds
230° at 12 knots 8,996 meters
  • Scattered at 2,600' AGL
TAF DAOI 141700Z 1418/1518 29011KT 9000 SCT020 FEW026CB BKN030 PROB30 TEMPO 1418/1424 5000 -TSRA BECMG 1500/1503 VRB02KT SCT026 BECMG 1509/1512 23012KT
Issued Dec-14 @ 17:00 UTC
(6 hours ago)
Valid From Dec-14 @ 18:00 UTC
(5 hours ago)
Valid To Dec-15 @ 18:00 UTC
(in 19 hours)
Dec-14 @ 18:00 - Dec-15 @ 00:00
Wind Visibility
290° at 11 knots 8,996 meters
Clouds
  • Scattered at 2,000' AGL
  • Few at 2,600' AGL
  • Broken at 3,000' AGL
Probability 30% Temporary Dec-14 @ 18:00 - Dec-15 @ 00:00
Conditions
  • Light Thunderstorm
  • Light Rain
Becoming Dec-15 @ 00:00 - Dec-15 @ 09:00
Wind Visibility
Variable at 2 knots 8,996 meters
Clouds
  • Scattered at 2,600' AGL
Becoming Dec-15 @ 09:00 - Dec-15 @ 18:00
Wind Visibility
230° at 12 knots 8,996 meters
Clouds
  • Scattered at 2,600' AGL